sensor_id;sensor_type;location;lat;lon;timestamp;temperature;humidity
6429;DHT22;3247;48.946;10.220;2023-06-22T00:00:29;18.40;99.90
6429;DHT22;3247;48.946;10.220;2023-06-22T00:02:55;18.40;99.90
6429;DHT22;3247;48.946;10.220;2023-06-22T00:05:20;18.40;99.90
6429;DHT22;3247;48.946;10.220;2023-06-22T00:07:46;18.30;99.90
6429;DHT22;3247;48.946;10.220;2023-06-22T00:10:11;18.30;99.90
6429;DHT22;3247;48.946;10.220;2023-06-22T00:12:37;18.20;99.90
6429;DHT22;3247;48.946;10.220;2023-06-22T00:15:03;18.10;99.90
6429;DHT22;3247;48.946;10.220;2023-06-22T00:17:28;18.10;99.90
6429;DHT22;3247;48.946;10.220;2023-06-22T00:19:54;18.00;99.90
6429;DHT22;3247;48.946;10.220;2023-06-22T00:22:20;18.00;99.90
6429;DHT22;3247;48.946;10.220;2023-06-22T00:24:55;18.10;99.90
6429;DHT22;3247;48.946;10.220;2023-06-22T00:27:23;18.10;99.90
6429;DHT22;3247;48.946;10.220;2023-06-22T00:29:49;18.00;99.90
6429;DHT22;3247;48.946;10.220;2023-06-22T00:32:14;18.10;99.90
6429;DHT22;3247;48.946;10.220;2023-06-22T00:34:39;18.00;99.90
6429;DHT22;3247;48.946;10.220;2023-06-22T00:37:05;18.00;99.90
6429;DHT22;3247;48.946;10.220;2023-06-22T00:39:30;18.10;99.90
6429;DHT22;3247;48.946;10.220;2023-06-22T00:41:58;18.00;99.90
6429;DHT22;3247;48.946;10.220;2023-06-22T00:44:24;17.80;99.90
6429;DHT22;3247;48.946;10.220;2023-06-22T00:46:50;17.70;99.90
6429;DHT22;3247;48.946;10.220;2023-06-22T00:49:15;17.70;99.90
6429;DHT22;3247;48.946;10.220;2023-06-22T00:51:41;17.70;99.90
6429;DHT22;3247;48.946;10.220;2023-06-22T00:54:11;17.70;99.90
6429;DHT22;3247;48.946;10.220;2023-06-22T00:56:41;17.60;99.90
6429;DHT22;3247;48.946;10.220;2023-06-22T00:59:07;17.50;99.90
6429;DHT22;3247;48.946;10.220;2023-06-22T01:01:37;17.40;99.90
6429;DHT22;3247;48.946;10.220;2023-06-22T01:04:06;17.40;99.90
6429;DHT22;3247;48.946;10.220;2023-06-22T01:06:35;17.30;99.90
6429;DHT22;3247;48.946;10.220;2023-06-22T01:09:10;17.30;99.90
6429;DHT22;3247;48.946;10.220;2023-06-22T01:11:38;17.30;99.90
6429;DHT22;3247;48.946;10.220;2023-06-22T01:16:40;17.10;99.90
6429;DHT22;3247;48.946;10.220;2023-06-22T01:19:16;17.10;99.90
6429;DHT22;3247;48.946;10.220;2023-06-22T01:21:43;17.10;99.90
6429;DHT22;3247;48.946;10.220;2023-06-22T01:24:14;17.10;99.90
6429;DHT22;3247;48.946;10.220;2023-06-22T01:29:25;17.10;99.90
6429;DHT22;3247;48.946;10.220;2023-06-22T01:31:52;17.00;99.90
6429;DHT22;3247;48.946;10.220;2023-06-22T01:34:19;17.00;99.90
6429;DHT22;3247;48.946;10.220;2023-06-22T01:36:45;17.00;99.90
6429;DHT22;3247;48.946;10.220;2023-06-22T01:39:11;17.00;99.90
6429;DHT22;3247;48.946;10.220;2023-06-22T01:41:37;17.00;99.90
6429;DHT22;3247;48.946;10.220;2023-06-22T01:44:05;17.00;99.90
6429;DHT22;3247;48.946;10.220;2023-06-22T01:46:33;17.00;99.90
6429;DHT22;3247;48.946;10.220;2023-06-22T01:48:59;17.00;99.90
6429;DHT22;3247;48.946;10.220;2023-06-22T01:51:25;17.00;99.90
6429;DHT22;3247;48.946;10.220;2023-06-22T01:53:50;17.10;99.90
6429;DHT22;3247;48.946;10.220;2023-06-22T01:56:16;17.10;99.90
6429;DHT22;3247;48.946;10.220;2023-06-22T01:58:45;16.90;99.90
6429;DHT22;3247;48.946;10.220;2023-06-22T02:01:13;16.90;99.90
6429;DHT22;3247;48.946;10.220;2023-06-22T02:03:48;16.90;99.90
6429;DHT22;3247;48.946;10.220;2023-06-22T02:06:23;16.90;99.90
6429;DHT22;3247;48.946;10.220;2023-06-22T02:08:49;16.90;99.90
6429;DHT22;3247;48.946;10.220;2023-06-22T02:11:16;16.90;99.90
6429;DHT22;3247;48.946;10.220;2023-06-22T02:13:44;16.90;99.90
6429;DHT22;3247;48.946;10.220;2023-06-22T02:16:10;17.00;99.90
6429;DHT22;3247;48.946;10.220;2023-06-22T02:18:36;17.10;99.90
6429;DHT22;3247;48.946;10.220;2023-06-22T02:21:02;17.10;99.90
6429;DHT22;3247;48.946;10.220;2023-06-22T02:23:28;16.90;99.90
6429;DHT22;3247;48.946;10.220;2023-06-22T02:25:53;17.20;99.90
6429;DHT22;3247;48.946;10.220;2023-06-22T02:28:24;17.20;99.90
6429;DHT22;3247;48.946;10.220;2023-06-22T02:30:50;17.20;99.90
6429;DHT22;3247;48.946;10.220;2023-06-22T02:33:15;17.30;99.90
6429;DHT22;3247;48.946;10.220;2023-06-22T02:35:41;17.20;99.90
6429;DHT22;3247;48.946;10.220;2023-06-22T02:38:10;17.20;99.90
6429;DHT22;3247;48.946;10.220;2023-06-22T02:40:36;17.10;99.90
6429;DHT22;3247;48.946;10.220;2023-06-22T02:43:01;17.00;99.90
6429;DHT22;3247;48.946;10.220;2023-06-22T02:45:28;16.90;99.90
6429;DHT22;3247;48.946;10.220;2023-06-22T02:47:53;16.80;99.90
6429;DHT22;3247;48.946;10.220;2023-06-22T02:50:19;16.80;99.90
6429;DHT22;3247;48.946;10.220;2023-06-22T02:52:44;16.80;99.90
6429;DHT22;3247;48.946;10.220;2023-06-22T02:55:10;16.80;99.90
6429;DHT22;3247;48.946;10.220;2023-06-22T02:57:35;16.90;99.90
6429;DHT22;3247;48.946;10.220;2023-06-22T03:00:02;16.80;99.90
6429;DHT22;3247;48.946;10.220;2023-06-22T03:02:28;16.90;99.90
6429;DHT22;3247;48.946;10.220;2023-06-22T03:04:54;16.80;99.90
6429;DHT22;3247;48.946;10.220;2023-06-22T03:07:20;16.90;99.90
6429;DHT22;3247;48.946;10.220;2023-06-22T03:09:46;16.70;99.90
6429;DHT22;3247;48.946;10.220;2023-06-22T03:12:11;16.70;99.90
6429;DHT22;3247;48.946;10.220;2023-06-22T03:14:37;16.70;99.90
6429;DHT22;3247;48.946;10.220;2023-06-22T03:17:04;16.70;99.90
6429;DHT22;3247;48.946;10.220;2023-06-22T03:19:30;16.70;99.90
6429;DHT22;3247;48.946;10.220;2023-06-22T03:21:57;16.70;99.90
6429;DHT22;3247;48.946;10.220;2023-06-22T03:24:22;16.60;99.90
6429;DHT22;3247;48.946;10.220;2023-06-22T03:26:48;16.60;99.90
6429;DHT22;3247;48.946;10.220;2023-06-22T03:29:15;16.60;99.90
6429;DHT22;3247;48.946;10.220;2023-06-22T03:31:41;16.60;99.90
6429;DHT22;3247;48.946;10.220;2023-06-22T03:34:06;16.60;99.90
6429;DHT22;3247;48.946;10.220;2023-06-22T03:36:32;16.70;99.90
6429;DHT22;3247;48.946;10.220;2023-06-22T03:38:57;16.70;99.90
6429;DHT22;3247;48.946;10.220;2023-06-22T03:41:23;16.70;99.90
6429;DHT22;3247;48.946;10.220;2023-06-22T03:43:48;16.70;99.90
6429;DHT22;3247;48.946;10.220;2023-06-22T03:46:14;16.80;99.90
6429;DHT22;3247;48.946;10.220;2023-06-22T03:48:39;16.90;99.90
6429;DHT22;3247;48.946;10.220;2023-06-22T03:51:05;16.90;99.90
6429;DHT22;3247;48.946;10.220;2023-06-22T03:53:31;16.90;99.90
6429;DHT22;3247;48.946;10.220;2023-06-22T03:55:56;16.90;99.90
6429;DHT22;3247;48.946;10.220;2023-06-22T03:58:22;17.00;99.90
6429;DHT22;3247;48.946;10.220;2023-06-22T04:00:48;16.90;99.90
6429;DHT22;3247;48.946;10.220;2023-06-22T04:03:14;17.10;99.90
6429;DHT22;3247;48.946;10.220;2023-06-22T04:05:39;17.10;99.90
6429;DHT22;3247;48.946;10.220;2023-06-22T04:08:05;17.10;99.90
6429;DHT22;3247;48.946;10.220;2023-06-22T04:10:31;17.20;99.90
6429;DHT22;3247;48.946;10.220;2023-06-22T04:12:56;17.30;99.90
6429;DHT22;3247;48.946;10.220;2023-06-22T04:15:22;17.40;99.90
6429;DHT22;3247;48.946;10.220;2023-06-22T04:17:47;17.70;99.90
6429;DHT22;3247;48.946;10.220;2023-06-22T04:20:13;17.90;99.90
6429;DHT22;3247;48.946;10.220;2023-06-22T04:22:38;18.20;99.90
6429;DHT22;3247;48.946;10.220;2023-06-22T04:25:05;18.50;99.90
6429;DHT22;3247;48.946;10.220;2023-06-22T04:27:30;18.80;99.90
6429;DHT22;3247;48.946;10.220;2023-06-22T04:29:56;18.90;99.90
6429;DHT22;3247;48.946;10.220;2023-06-22T04:32:25;19.20;99.90
6429;DHT22;3247;48.946;10.220;2023-06-22T04:34:51;19.50;99.90
6429;DHT22;3247;48.946;10.220;2023-06-22T04:37:17;19.70;99.90
6429;DHT22;3247;48.946;10.220;2023-06-22T04:39:43;19.80;99.90
6429;DHT22;3247;48.946;10.220;2023-06-22T04:42:08;20.10;99.90
6429;DHT22;3247;48.946;10.220;2023-06-22T04:44:34;20.40;99.90
6429;DHT22;3247;48.946;10.220;2023-06-22T04:47:00;20.60;99.90
6429;DHT22;3247;48.946;10.220;2023-06-22T04:49:28;20.80;99.90
6429;DHT22;3247;48.946;10.220;2023-06-22T04:52:07;21.20;99.90
6429;DHT22;3247;48.946;10.220;2023-06-22T04:54:33;21.20;99.90
6429;DHT22;3247;48.946;10.220;2023-06-22T04:56:59;21.80;99.90
6429;DHT22;3247;48.946;10.220;2023-06-22T04:59:28;22.40;99.90
6429;DHT22;3247;48.946;10.220;2023-06-22T05:01:55;22.80;99.90
6429;DHT22;3247;48.946;10.220;2023-06-22T05:04:21;23.30;99.90
6429;DHT22;3247;48.946;10.220;2023-06-22T05:06:48;23.40;99.90
6429;DHT22;3247;48.946;10.220;2023-06-22T05:09:14;23.60;99.90
6429;DHT22;3247;48.946;10.220;2023-06-22T05:11:39;23.70;99.90
6429;DHT22;3247;48.946;10.220;2023-06-22T05:14:06;23.90;99.90
6429;DHT22;3247;48.946;10.220;2023-06-22T05:16:32;24.50;99.90
6429;DHT22;3247;48.946;10.220;2023-06-22T05:18:58;24.60;99.90
6429;DHT22;3247;48.946;10.220;2023-06-22T05:21:24;25.00;99.90
6429;DHT22;3247;48.946;10.220;2023-06-22T05:23:50;25.60;99.90
6429;DHT22;3247;48.946;10.220;2023-06-22T05:26:21;26.40;99.90
6429;DHT22;3247;48.946;10.220;2023-06-22T05:28:47;26.30;99.90
6429;DHT22;3247;48.946;10.220;2023-06-22T05:31:14;26.00;99.90
6429;DHT22;3247;48.946;10.220;2023-06-22T05:33:43;26.80;99.90
6429;DHT22;3247;48.946;10.220;2023-06-22T05:36:09;26.70;99.90
6429;DHT22;3247;48.946;10.220;2023-06-22T05:38:35;27.20;99.90
6429;DHT22;3247;48.946;10.220;2023-06-22T05:41:01;27.60;99.90
6429;DHT22;3247;48.946;10.220;2023-06-22T05:43:26;28.10;99.90
6429;DHT22;3247;48.946;10.220;2023-06-22T05:45:52;28.10;99.90
6429;DHT22;3247;48.946;10.220;2023-06-22T05:48:17;28.70;99.90
6429;DHT22;3247;48.946;10.220;2023-06-22T05:50:43;28.60;99.90
6429;DHT22;3247;48.946;10.220;2023-06-22T05:53:08;30.20;99.90
6429;DHT22;3247;48.946;10.220;2023-06-22T05:55:33;30.30;99.90
6429;DHT22;3247;48.946;10.220;2023-06-22T05:57:59;30.10;99.90
6429;DHT22;3247;48.946;10.220;2023-06-22T06:00:24;30.20;99.90
6429;DHT22;3247;48.946;10.220;2023-06-22T06:02:50;30.90;99.90
6429;DHT22;3247;48.946;10.220;2023-06-22T06:05:16;31.70;99.90
6429;DHT22;3247;48.946;10.220;2023-06-22T06:07:42;31.00;99.90
6429;DHT22;3247;48.946;10.220;2023-06-22T06:10:08;30.80;99.90
6429;DHT22;3247;48.946;10.220;2023-06-22T06:12:34;31.30;99.90
6429;DHT22;3247;48.946;10.220;2023-06-22T06:14:59;30.90;99.90
6429;DHT22;3247;48.946;10.220;2023-06-22T06:17:25;31.20;99.90
6429;DHT22;3247;48.946;10.220;2023-06-22T06:19:50;32.30;99.90
6429;DHT22;3247;48.946;10.220;2023-06-22T06:22:16;33.00;99.90
6429;DHT22;3247;48.946;10.220;2023-06-22T06:24:41;32.10;99.90
6429;DHT22;3247;48.946;10.220;2023-06-22T06:27:07;32.90;99.90
6429;DHT22;3247;48.946;10.220;2023-06-22T06:29:33;33.40;99.90
6429;DHT22;3247;48.946;10.220;2023-06-22T06:31:58;32.80;99.90
6429;DHT22;3247;48.946;10.220;2023-06-22T06:34:25;32.40;99.90
6429;DHT22;3247;48.946;10.220;2023-06-22T06:36:50;33.80;99.90
6429;DHT22;3247;48.946;10.220;2023-06-22T06:39:15;33.80;99.90
6429;DHT22;3247;48.946;10.220;2023-06-22T06:41:41;34.20;99.90
6429;DHT22;3247;48.946;10.220;2023-06-22T06:44:07;33.70;99.90
6429;DHT22;3247;48.946;10.220;2023-06-22T06:46:32;34.60;99.90
6429;DHT22;3247;48.946;10.220;2023-06-22T06:48:58;34.30;99.90
6429;DHT22;3247;48.946;10.220;2023-06-22T06:51:24;34.50;99.90
6429;DHT22;3247;48.946;10.220;2023-06-22T06:53:49;33.70;99.90
6429;DHT22;3247;48.946;10.220;2023-06-22T06:56:18;32.70;99.90
6429;DHT22;3247;48.946;10.220;2023-06-22T06:58:43;33.70;99.90
6429;DHT22;3247;48.946;10.220;2023-06-22T07:01:13;34.70;99.90
6429;DHT22;3247;48.946;10.220;2023-06-22T07:03:39;35.20;99.90
6429;DHT22;3247;48.946;10.220;2023-06-22T07:06:04;35.40;99.90
6429;DHT22;3247;48.946;10.220;2023-06-22T07:08:30;34.60;99.90
6429;DHT22;3247;48.946;10.220;2023-06-22T07:10:55;34.00;99.90
6429;DHT22;3247;48.946;10.220;2023-06-22T07:13:20;34.70;99.90
6429;DHT22;3247;48.946;10.220;2023-06-22T07:15:46;33.70;99.90
6429;DHT22;3247;48.946;10.220;2023-06-22T07:18:11;33.30;99.90
6429;DHT22;3247;48.946;10.220;2023-06-22T07:20:37;33.90;99.90
6429;DHT22;3247;48.946;10.220;2023-06-22T07:23:04;33.90;99.90
6429;DHT22;3247;48.946;10.220;2023-06-22T07:25:29;35.30;99.90
6429;DHT22;3247;48.946;10.220;2023-06-22T07:27:59;35.60;99.20
6429;DHT22;3247;48.946;10.220;2023-06-22T07:30:24;35.10;99.90
6429;DHT22;3247;48.946;10.220;2023-06-22T07:32:50;35.20;99.90
6429;DHT22;3247;48.946;10.220;2023-06-22T07:35:16;36.20;98.90
6429;DHT22;3247;48.946;10.220;2023-06-22T07:37:44;35.30;98.20
6429;DHT22;3247;48.946;10.220;2023-06-22T07:40:09;34.90;99.90
6429;DHT22;3247;48.946;10.220;2023-06-22T07:42:35;35.80;97.90
6429;DHT22;3247;48.946;10.220;2023-06-22T07:45:01;35.90;98.80
6429;DHT22;3247;48.946;10.220;2023-06-22T07:47:27;35.30;98.70
6429;DHT22;3247;48.946;10.220;2023-06-22T07:49:54;36.00;97.30
6429;DHT22;3247;48.946;10.220;2023-06-22T07:52:21;36.40;96.90
6429;DHT22;3247;48.946;10.220;2023-06-22T07:54:46;36.60;95.00
6429;DHT22;3247;48.946;10.220;2023-06-22T07:57:12;36.10;96.90
6429;DHT22;3247;48.946;10.220;2023-06-22T07:59:37;35.40;97.90
6429;DHT22;3247;48.946;10.220;2023-06-22T08:02:04;35.80;97.20
6429;DHT22;3247;48.946;10.220;2023-06-22T08:04:30;36.40;95.20
6429;DHT22;3247;48.946;10.220;2023-06-22T08:06:57;37.40;93.60
6429;DHT22;3247;48.946;10.220;2023-06-22T08:09:22;37.60;92.30
6429;DHT22;3247;48.946;10.220;2023-06-22T08:11:48;37.40;93.00
6429;DHT22;3247;48.946;10.220;2023-06-22T08:14:14;37.20;93.10
6429;DHT22;3247;48.946;10.220;2023-06-22T08:16:40;37.20;92.40
6429;DHT22;3247;48.946;10.220;2023-06-22T08:19:06;37.00;92.10
6429;DHT22;3247;48.946;10.220;2023-06-22T08:21:31;36.20;92.20
6429;DHT22;3247;48.946;10.220;2023-06-22T08:23:57;35.80;93.80
6429;DHT22;3247;48.946;10.220;2023-06-22T08:26:27;35.50;93.90
6429;DHT22;3247;48.946;10.220;2023-06-22T08:28:53;35.60;94.40
6429;DHT22;3247;48.946;10.220;2023-06-22T08:31:18;35.20;94.80
6429;DHT22;3247;48.946;10.220;2023-06-22T08:33:44;34.80;94.60
6429;DHT22;3247;48.946;10.220;2023-06-22T08:36:10;34.70;94.80
6429;DHT22;3247;48.946;10.220;2023-06-22T08:38:38;34.00;96.50
6429;DHT22;3247;48.946;10.220;2023-06-22T08:41:04;34.20;96.20
6429;DHT22;3247;48.946;10.220;2023-06-22T08:43:29;33.70;95.50
6429;DHT22;3247;48.946;10.220;2023-06-22T08:45:55;33.90;95.40
6429;DHT22;3247;48.946;10.220;2023-06-22T08:48:20;33.70;95.90
6429;DHT22;3247;48.946;10.220;2023-06-22T08:50:46;33.50;97.20
6429;DHT22;3247;48.946;10.220;2023-06-22T08:53:13;33.70;96.80
6429;DHT22;3247;48.946;10.220;2023-06-22T08:55:38;33.80;96.30
6429;DHT22;3247;48.946;10.220;2023-06-22T08:58:04;33.80;95.80
6429;DHT22;3247;48.946;10.220;2023-06-22T09:00:29;33.90;96.00
6429;DHT22;3247;48.946;10.220;2023-06-22T09:02:57;33.50;96.40
6429;DHT22;3247;48.946;10.220;2023-06-22T09:05:24;33.80;95.50
6429;DHT22;3247;48.946;10.220;2023-06-22T09:07:51;33.80;95.90
6429;DHT22;3247;48.946;10.220;2023-06-22T09:10:16;33.60;95.70
6429;DHT22;3247;48.946;10.220;2023-06-22T09:12:42;34.00;95.70
6429;DHT22;3247;48.946;10.220;2023-06-22T09:15:08;33.80;95.30
6429;DHT22;3247;48.946;10.220;2023-06-22T09:17:34;33.50;96.20
6429;DHT22;3247;48.946;10.220;2023-06-22T09:20:00;33.50;95.70
6429;DHT22;3247;48.946;10.220;2023-06-22T09:22:26;33.90;95.00
6429;DHT22;3247;48.946;10.220;2023-06-22T09:24:55;34.00;95.00
6429;DHT22;3247;48.946;10.220;2023-06-22T09:27:21;34.20;95.60
6429;DHT22;3247;48.946;10.220;2023-06-22T09:29:47;34.20;94.60
6429;DHT22;3247;48.946;10.220;2023-06-22T09:32:13;34.50;94.70
6429;DHT22;3247;48.946;10.220;2023-06-22T09:34:38;34.60;94.80
6429;DHT22;3247;48.946;10.220;2023-06-22T09:37:04;35.00;93.10
6429;DHT22;3247;48.946;10.220;2023-06-22T09:39:30;34.90;94.60
6429;DHT22;3247;48.946;10.220;2023-06-22T09:41:55;35.10;94.90
6429;DHT22;3247;48.946;10.220;2023-06-22T09:44:20;35.00;93.90
6429;DHT22;3247;48.946;10.220;2023-06-22T09:46:46;35.20;93.90
6429;DHT22;3247;48.946;10.220;2023-06-22T09:49:11;35.40;93.50
6429;DHT22;3247;48.946;10.220;2023-06-22T09:51:37;35.60;92.40
6429;DHT22;3247;48.946;10.220;2023-06-22T09:54:02;35.20;92.70
6429;DHT22;3247;48.946;10.220;2023-06-22T09:56:28;35.30;93.30
6429;DHT22;3247;48.946;10.220;2023-06-22T09:58:55;35.50;93.40
6429;DHT22;3247;48.946;10.220;2023-06-22T10:01:20;35.70;92.90
6429;DHT22;3247;48.946;10.220;2023-06-22T10:03:46;35.90;93.20
6429;DHT22;3247;48.946;10.220;2023-06-22T10:06:12;35.70;92.40
6429;DHT22;3247;48.946;10.220;2023-06-22T10:08:37;35.60;92.30
6429;DHT22;3247;48.946;10.220;2023-06-22T10:11:04;35.60;92.50
6429;DHT22;3247;48.946;10.220;2023-06-22T10:13:29;35.70;92.70
6429;DHT22;3247;48.946;10.220;2023-06-22T10:15:55;36.00;93.20
6429;DHT22;3247;48.946;10.220;2023-06-22T10:18:21;36.10;93.00
6429;DHT22;3247;48.946;10.220;2023-06-22T10:20:47;35.90;91.90
6429;DHT22;3247;48.946;10.220;2023-06-22T10:23:13;35.70;93.20
6429;DHT22;3247;48.946;10.220;2023-06-22T10:25:39;35.50;92.30
6429;DHT22;3247;48.946;10.220;2023-06-22T10:28:04;35.70;92.50
6429;DHT22;3247;48.946;10.220;2023-06-22T10:30:30;35.70;92.90
6429;DHT22;3247;48.946;10.220;2023-06-22T10:32:55;35.70;92.60
6429;DHT22;3247;48.946;10.220;2023-06-22T10:35:21;35.90;92.60
6429;DHT22;3247;48.946;10.220;2023-06-22T10:37:46;35.50;91.90
6429;DHT22;3247;48.946;10.220;2023-06-22T10:40:12;35.80;92.90
6429;DHT22;3247;48.946;10.220;2023-06-22T10:42:38;36.00;92.80
6429;DHT22;3247;48.946;10.220;2023-06-22T10:45:04;36.00;91.80
6429;DHT22;3247;48.946;10.220;2023-06-22T10:47:30;35.80;92.70
6429;DHT22;3247;48.946;10.220;2023-06-22T10:49:56;35.90;91.60
6429;DHT22;3247;48.946;10.220;2023-06-22T10:52:21;35.70;92.20
6429;DHT22;3247;48.946;10.220;2023-06-22T10:54:47;35.50;92.70
6429;DHT22;3247;48.946;10.220;2023-06-22T10:57:13;35.80;92.10
6429;DHT22;3247;48.946;10.220;2023-06-22T10:59:39;35.80;91.70
6429;DHT22;3247;48.946;10.220;2023-06-22T11:02:04;35.50;92.50
6429;DHT22;3247;48.946;10.220;2023-06-22T11:04:30;35.10;91.60
6429;DHT22;3247;48.946;10.220;2023-06-22T11:06:56;34.90;93.20
6429;DHT22;3247;48.946;10.220;2023-06-22T11:09:21;35.10;92.90
6429;DHT22;3247;48.946;10.220;2023-06-22T11:11:51;35.10;93.40
6429;DHT22;3247;48.946;10.220;2023-06-22T11:14:19;34.90;92.40
6429;DHT22;3247;48.946;10.220;2023-06-22T11:16:45;35.10;93.60
6429;DHT22;3247;48.946;10.220;2023-06-22T11:19:11;35.40;92.90
6429;DHT22;3247;48.946;10.220;2023-06-22T11:21:37;35.50;93.00
6429;DHT22;3247;48.946;10.220;2023-06-22T11:24:02;35.90;93.00
6429;DHT22;3247;48.946;10.220;2023-06-22T11:26:28;35.80;93.00
6429;DHT22;3247;48.946;10.220;2023-06-22T11:28:53;35.40;93.50
6429;DHT22;3247;48.946;10.220;2023-06-22T11:31:19;35.10;92.90
6429;DHT22;3247;48.946;10.220;2023-06-22T11:33:44;34.60;94.00
6429;DHT22;3247;48.946;10.220;2023-06-22T11:36:11;34.60;93.70
6429;DHT22;3247;48.946;10.220;2023-06-22T11:38:36;34.70;94.60
6429;DHT22;3247;48.946;10.220;2023-06-22T11:41:07;34.90;94.60
6429;DHT22;3247;48.946;10.220;2023-06-22T11:43:33;35.00;93.40
6429;DHT22;3247;48.946;10.220;2023-06-22T11:45:59;35.00;93.30
6429;DHT22;3247;48.946;10.220;2023-06-22T11:48:24;34.70;94.80
6429;DHT22;3247;48.946;10.220;2023-06-22T11:50:50;34.90;94.40
6429;DHT22;3247;48.946;10.220;2023-06-22T11:53:15;35.00;95.20
6429;DHT22;3247;48.946;10.220;2023-06-22T11:55:43;35.20;93.40
6429;DHT22;3247;48.946;10.220;2023-06-22T11:58:13;35.00;94.00
6429;DHT22;3247;48.946;10.220;2023-06-22T12:00:40;35.10;93.10
6429;DHT22;3247;48.946;10.220;2023-06-22T12:03:06;35.10;93.70
6429;DHT22;3247;48.946;10.220;2023-06-22T12:05:32;34.90;93.70
6429;DHT22;3247;48.946;10.220;2023-06-22T12:07:57;35.10;93.90
6429;DHT22;3247;48.946;10.220;2023-06-22T12:10:25;35.70;93.20
6429;DHT22;3247;48.946;10.220;2023-06-22T12:12:51;35.70;93.10
6429;DHT22;3247;48.946;10.220;2023-06-22T12:15:17;35.80;92.80
6429;DHT22;3247;48.946;10.220;2023-06-22T12:17:42;35.80;93.50
6429;DHT22;3247;48.946;10.220;2023-06-22T12:20:08;35.60;92.90
6429;DHT22;3247;48.946;10.220;2023-06-22T12:22:34;35.40;93.70
6429;DHT22;3247;48.946;10.220;2023-06-22T12:25:00;35.10;93.70
6429;DHT22;3247;48.946;10.220;2023-06-22T12:27:25;35.30;92.60
6429;DHT22;3247;48.946;10.220;2023-06-22T12:29:51;35.40;92.60
6429;DHT22;3247;48.946;10.220;2023-06-22T12:32:17;35.10;94.60
6429;DHT22;3247;48.946;10.220;2023-06-22T12:34:42;34.80;93.50
6429;DHT22;3247;48.946;10.220;2023-06-22T12:37:08;34.80;94.20
6429;DHT22;3247;48.946;10.220;2023-06-22T12:39:33;34.70;94.60
6429;DHT22;3247;48.946;10.220;2023-06-22T12:41:59;34.50;94.50
6429;DHT22;3247;48.946;10.220;2023-06-22T12:44:25;34.40;94.90
6429;DHT22;3247;48.946;10.220;2023-06-22T12:46:50;34.30;95.10
6429;DHT22;3247;48.946;10.220;2023-06-22T12:49:16;34.50;95.10
6429;DHT22;3247;48.946;10.220;2023-06-22T12:51:42;34.70;95.00
6429;DHT22;3247;48.946;10.220;2023-06-22T12:54:07;34.50;94.40
6429;DHT22;3247;48.946;10.220;2023-06-22T12:56:38;34.40;95.50
6429;DHT22;3247;48.946;10.220;2023-06-22T12:59:03;34.40;95.20
6429;DHT22;3247;48.946;10.220;2023-06-22T13:01:29;34.40;95.30
6429;DHT22;3247;48.946;10.220;2023-06-22T13:03:56;34.80;94.80
6429;DHT22;3247;48.946;10.220;2023-06-22T13:06:22;34.90;93.60
6429;DHT22;3247;48.946;10.220;2023-06-22T13:08:47;34.60;94.70
6429;DHT22;3247;48.946;10.220;2023-06-22T13:11:13;34.50;94.70
6429;DHT22;3247;48.946;10.220;2023-06-22T13:13:38;34.80;93.30
6429;DHT22;3247;48.946;10.220;2023-06-22T13:16:04;34.60;94.00
6429;DHT22;3247;48.946;10.220;2023-06-22T13:18:29;34.80;93.30
6429;DHT22;3247;48.946;10.220;2023-06-22T13:20:55;34.70;94.10
6429;DHT22;3247;48.946;10.220;2023-06-22T13:23:21;34.60;94.40
6429;DHT22;3247;48.946;10.220;2023-06-22T13:25:46;34.50;95.20
6429;DHT22;3247;48.946;10.220;2023-06-22T13:28:15;34.50;95.10
6429;DHT22;3247;48.946;10.220;2023-06-22T13:30:41;34.50;94.50
6429;DHT22;3247;48.946;10.220;2023-06-22T13:33:07;35.00;94.00
6429;DHT22;3247;48.946;10.220;2023-06-22T13:35:33;35.30;94.20
6429;DHT22;3247;48.946;10.220;2023-06-22T13:38:00;35.50;92.50
6429;DHT22;3247;48.946;10.220;2023-06-22T13:40:26;35.40;94.80
6429;DHT22;3247;48.946;10.220;2023-06-22T13:42:51;35.00;94.10
6429;DHT22;3247;48.946;10.220;2023-06-22T13:45:17;34.90;93.70
6429;DHT22;3247;48.946;10.220;2023-06-22T13:47:44;34.60;94.10
6429;DHT22;3247;48.946;10.220;2023-06-22T13:50:11;34.40;94.70
6429;DHT22;3247;48.946;10.220;2023-06-22T13:52:38;34.20;95.10
6429;DHT22;3247;48.946;10.220;2023-06-22T13:55:03;34.00;93.90
6429;DHT22;3247;48.946;10.220;2023-06-22T13:57:39;34.00;94.70
6429;DHT22;3247;48.946;10.220;2023-06-22T14:00:05;34.00;94.10
6429;DHT22;3247;48.946;10.220;2023-06-22T14:02:31;34.00;93.10
6429;DHT22;3247;48.946;10.220;2023-06-22T14:04:56;34.00;92.90
6429;DHT22;3247;48.946;10.220;2023-06-22T14:07:22;34.00;93.60
6429;DHT22;3247;48.946;10.220;2023-06-22T14:09:47;34.40;94.10
6429;DHT22;3247;48.946;10.220;2023-06-22T14:12:13;34.40;92.10
6429;DHT22;3247;48.946;10.220;2023-06-22T14:14:38;34.60;91.90
6429;DHT22;3247;48.946;10.220;2023-06-22T14:17:04;34.60;93.60
6429;DHT22;3247;48.946;10.220;2023-06-22T14:19:30;34.70;93.10
6429;DHT22;3247;48.946;10.220;2023-06-22T14:21:55;34.70;94.30
6429;DHT22;3247;48.946;10.220;2023-06-22T14:24:22;34.30;92.90
6429;DHT22;3247;48.946;10.220;2023-06-22T14:26:53;34.20;95.40
6429;DHT22;3247;48.946;10.220;2023-06-22T14:29:19;34.00;93.70
6429;DHT22;3247;48.946;10.220;2023-06-22T14:31:45;34.30;94.80
6429;DHT22;3247;48.946;10.220;2023-06-22T14:34:11;34.40;93.90
6429;DHT22;3247;48.946;10.220;2023-06-22T14:36:36;34.70;93.00
6429;DHT22;3247;48.946;10.220;2023-06-22T14:39:02;34.80;92.50
6429;DHT22;3247;48.946;10.220;2023-06-22T14:41:27;35.10;92.70
6429;DHT22;3247;48.946;10.220;2023-06-22T14:43:53;34.80;92.10
6429;DHT22;3247;48.946;10.220;2023-06-22T14:46:18;34.90;91.90
6429;DHT22;3247;48.946;10.220;2023-06-22T14:48:44;34.50;91.20
6429;DHT22;3247;48.946;10.220;2023-06-22T14:51:10;34.20;93.30
6429;DHT22;3247;48.946;10.220;2023-06-22T14:53:37;33.80;94.10
6429;DHT22;3247;48.946;10.220;2023-06-22T14:56:02;33.70;94.10
6429;DHT22;3247;48.946;10.220;2023-06-22T14:58:36;33.80;93.00
6429;DHT22;3247;48.946;10.220;2023-06-22T15:01:02;33.80;93.70
6429;DHT22;3247;48.946;10.220;2023-06-22T15:03:29;34.00;92.50
6429;DHT22;3247;48.946;10.220;2023-06-22T15:05:56;34.30;91.80
6429;DHT22;3247;48.946;10.220;2023-06-22T15:08:21;34.40;91.50
6429;DHT22;3247;48.946;10.220;2023-06-22T15:10:47;34.20;91.90
6429;DHT22;3247;48.946;10.220;2023-06-22T15:13:13;34.40;91.80
6429;DHT22;3247;48.946;10.220;2023-06-22T15:15:39;34.10;91.20
6429;DHT22;3247;48.946;10.220;2023-06-22T15:18:05;33.70;91.60
6429;DHT22;3247;48.946;10.220;2023-06-22T15:20:30;33.50;92.50
6429;DHT22;3247;48.946;10.220;2023-06-22T15:22:57;33.30;92.40
6429;DHT22;3247;48.946;10.220;2023-06-22T15:25:23;33.10;92.00
6429;DHT22;3247;48.946;10.220;2023-06-22T15:27:48;33.00;92.20
6429;DHT22;3247;48.946;10.220;2023-06-22T15:30:14;32.90;92.50
6429;DHT22;3247;48.946;10.220;2023-06-22T15:32:43;32.90;92.10
6429;DHT22;3247;48.946;10.220;2023-06-22T15:35:10;32.90;92.20
6429;DHT22;3247;48.946;10.220;2023-06-22T15:37:35;33.10;91.20
6429;DHT22;3247;48.946;10.220;2023-06-22T15:40:01;33.10;92.50
6429;DHT22;3247;48.946;10.220;2023-06-22T15:42:26;33.40;93.10